sensor_id;sensor_type;location;lat;lon;timestamp;pressure;altitude;pressure_sealevel;temperature;humidity
64862;BME280;62652;42.274;-71.436;2024-03-02T00:00:01;102700.0;;;3.2222222222222205;51.7
64862;BME280;62652;42.274;-71.436;2024-03-02T00:01:00;102700.0;;;3.111111111111112;51.7
64862;BME280;62652;42.274;-71.436;2024-03-02T00:02:01;102700.0;;;3.111111111111112;52.1
64862;BME280;62652;42.274;-71.436;2024-03-02T00:03:00;102700.0;;;3.2222222222222205;52.1
64862;BME280;62652;42.274;-71.436;2024-03-02T00:04:02;102700.0;;;3.2222222222222205;52.4
64862;BME280;62652;42.274;-71.436;2024-03-02T00:05:00;102700.0;;;3.111111111111112;52.3
64862;BME280;62652;42.274;-71.436;2024-03-02T00:06:01;102709.99999999999;;;3.111111111111112;52.3
64862;BME280;62652;42.274;-71.436;2024-03-02T00:07:00;102709.99999999999;;;3.111111111111112;52.6
64862;BME280;62652;42.274;-71.436;2024-03-02T00:08:02;102700.0;;;2.999999999999999;53.2
64862;BME280;62652;42.274;-71.436;2024-03-02T00:09:01;102700.0;;;2.8888888888888906;53.0
64862;BME280;62652;42.274;-71.436;2024-03-02T00:10:01;102700.0;;;2.8888888888888906;53.6
64862;BME280;62652;42.274;-71.436;2024-03-02T00:11:01;102700.0;;;2.999999999999999;53.8
64862;BME280;62652;42.274;-71.436;2024-03-02T00:12:00;102690.00000000001;;;2.8888888888888906;53.8
64862;BME280;62652;42.274;-71.436;2024-03-02T00:13:00;102700.0;;;2.8888888888888906;54.1
64862;BME280;62652;42.274;-71.436;2024-03-02T00:14:01;102709.99999999999;;;2.7777777777777777;54.2
64862;BME280;62652;42.274;-71.436;2024-03-02T00:15:00;102709.99999999999;;;2.7777777777777777;54.6
64862;BME280;62652;42.274;-71.436;2024-03-02T00:16:01;102709.99999999999;;;2.7777777777777777;54.8
64862;BME280;62652;42.274;-71.436;2024-03-02T00:17:00;102709.99999999999;;;2.8888888888888906;54.7
64862;BME280;62652;42.274;-71.436;2024-03-02T00:18:00;102700.0;;;2.7777777777777777;54.9
64862;BME280;62652;42.274;-71.436;2024-03-02T00:19:02;102700.0;;;2.7222222222222214;55.6
64862;BME280;62652;42.274;-71.436;2024-03-02T00:20:03;102700.0;;;2.7222222222222214;56.1
64862;BME280;62652;42.274;-71.436;2024-03-02T00:21:01;102700.0;;;2.7222222222222214;56.1
64862;BME280;62652;42.274;-71.436;2024-03-02T00:22:01;102700.0;;;2.6111111111111125;56.2
64862;BME280;62652;42.274;-71.436;2024-03-02T00:23:03;102700.0;;;2.7222222222222214;56.3
64862;BME280;62652;42.274;-71.436;2024-03-02T00:24:07;102709.99999999999;;;2.7222222222222214;56.6
64862;BME280;62652;42.274;-71.436;2024-03-02T00:25:01;102709.99999999999;;;2.7222222222222214;56.9
64862;BME280;62652;42.274;-71.436;2024-03-02T00:26:01;102709.99999999999;;;2.6111111111111125;57.2
64862;BME280;62652;42.274;-71.436;2024-03-02T00:27:01;102709.99999999999;;;2.6111111111111125;57.3
64862;BME280;62652;42.274;-71.436;2024-03-02T00:28:00;102700.0;;;2.5;57.4
64862;BME280;62652;42.274;-71.436;2024-03-02T00:29:00;102700.0;;;2.6111111111111125;58.0
64862;BME280;62652;42.274;-71.436;2024-03-02T00:30:00;102700.0;;;2.5;58.3
64862;BME280;62652;42.274;-71.436;2024-03-02T00:31:03;102700.0;;;2.5;58.4
64862;BME280;62652;42.274;-71.436;2024-03-02T00:32:01;102700.0;;;2.6111111111111125;58.1
64862;BME280;62652;42.274;-71.436;2024-03-02T00:33:00;102690.00000000001;;;2.5;58.5
64862;BME280;62652;42.274;-71.436;2024-03-02T00:34:04;102700.0;;;2.6111111111111125;58.6
64862;BME280;62652;42.274;-71.436;2024-03-02T00:35:00;102690.00000000001;;;2.5;58.7
64862;BME280;62652;42.274;-71.436;2024-03-02T00:36:01;102690.00000000001;;;2.5;59.0
64862;BME280;62652;42.274;-71.436;2024-03-02T00:37:01;102690.00000000001;;;2.5;59.5
64862;BME280;62652;42.274;-71.436;2024-03-02T00:38:04;102690.00000000001;;;2.2777777777777786;60.0
64862;BME280;62652;42.274;-71.436;2024-03-02T00:39:01;102700.0;;;2.2777777777777786;60.7
64862;BME280;62652;42.274;-71.436;2024-03-02T00:40:00;102700.0;;;2.2777777777777786;60.5
64862;BME280;62652;42.274;-71.436;2024-03-02T00:41:04;102700.0;;;2.2777777777777786;61.0
64862;BME280;62652;42.274;-71.436;2024-03-02T00:42:01;102700.0;;;2.2777777777777786;61.2
64862;BME280;62652;42.274;-71.436;2024-03-02T00:43:01;102700.0;;;2.2777777777777786;61.3
64862;BME280;62652;42.274;-71.436;2024-03-02T00:44:01;102700.0;;;2.2777777777777786;61.6
64862;BME280;62652;42.274;-71.436;2024-03-02T00:45:00;102700.0;;;2.2777777777777786;61.2
64862;BME280;62652;42.274;-71.436;2024-03-02T00:46:01;102700.0;;;2.1111111111111094;61.9
64862;BME280;62652;42.274;-71.436;2024-03-02T00:47:01;102700.0;;;2.1111111111111094;62.5
64862;BME280;62652;42.274;-71.436;2024-03-02T00:48:00;102700.0;;;2.1111111111111094;63.2
64862;BME280;62652;42.274;-71.436;2024-03-02T00:49:02;102700.0;;;2.000000000000001;63.4
64862;BME280;62652;42.274;-71.436;2024-03-02T00:50:01;102700.0;;;2.1111111111111094;63.7
64862;BME280;62652;42.274;-71.436;2024-03-02T00:51:01;102700.0;;;2.1111111111111094;63.8
64862;BME280;62652;42.274;-71.436;2024-03-02T00:52:01;102700.0;;;2.000000000000001;63.9
64862;BME280;62652;42.274;-71.436;2024-03-02T00:53:02;102700.0;;;2.1111111111111094;63.9
64862;BME280;62652;42.274;-71.436;2024-03-02T00:54:03;102709.99999999999;;;2.1111111111111094;64.0
64862;BME280;62652;42.274;-71.436;2024-03-02T00:55:00;102709.99999999999;;;2.1111111111111094;63.9
64862;BME280;62652;42.274;-71.436;2024-03-02T00:56:01;102709.99999999999;;;2.000000000000001;64.1
64862;BME280;62652;42.274;-71.436;2024-03-02T00:57:00;102709.99999999999;;;2.000000000000001;64.7
64862;BME280;62652;42.274;-71.436;2024-03-02T00:58:00;102709.99999999999;;;2.000000000000001;65.1
64862;BME280;62652;42.274;-71.436;2024-03-02T00:59:00;102709.99999999999;;;2.000000000000001;65.4
64862;BME280;62652;42.274;-71.436;2024-03-02T01:00:01;102709.99999999999;;;2.000000000000001;65.7
64862;BME280;62652;42.274;-71.436;2024-03-02T01:01:00;102709.99999999999;;;2.000000000000001;65.9
64862;BME280;62652;42.274;-71.436;2024-03-02T01:02:00;102709.99999999999;;;2.000000000000001;66.2
64862;BME280;62652;42.274;-71.436;2024-03-02T01:03:00;102709.99999999999;;;2.000000000000001;66.0
64862;BME280;62652;42.274;-71.436;2024-03-02T01:04:01;102709.99999999999;;;2.000000000000001;65.9
64862;BME280;62652;42.274;-71.436;2024-03-02T01:05:01;102709.99999999999;;;2.000000000000001;66.4
64862;BME280;62652;42.274;-71.436;2024-03-02T01:06:01;102709.99999999999;;;2.000000000000001;66.9
64862;BME280;62652;42.274;-71.436;2024-03-02T01:07:00;102709.99999999999;;;1.8888888888888882;67.0
64862;BME280;62652;42.274;-71.436;2024-03-02T01:08:00;102709.99999999999;;;1.8888888888888882;67.6
64862;BME280;62652;42.274;-71.436;2024-03-02T01:09:00;102709.99999999999;;;1.7777777777777795;67.5
64862;BME280;62652;42.274;-71.436;2024-03-02T01:10:01;102709.99999999999;;;1.8888888888888882;67.9
64862;BME280;62652;42.274;-71.436;2024-03-02T01:11:00;102709.99999999999;;;1.8888888888888882;68.4
64862;BME280;62652;42.274;-71.436;2024-03-02T01:12:01;102709.99999999999;;;1.8888888888888882;68.2
64862;BME280;62652;42.274;-71.436;2024-03-02T01:13:01;102709.99999999999;;;1.7777777777777795;68.5
64862;BME280;62652;42.274;-71.436;2024-03-02T01:14:01;102700.0;;;1.7777777777777795;68.6
64862;BME280;62652;42.274;-71.436;2024-03-02T01:15:01;102700.0;;;1.722222222222223;68.8
64862;BME280;62652;42.274;-71.436;2024-03-02T01:16:01;102700.0;;;1.722222222222223;69.6
64862;BME280;62652;42.274;-71.436;2024-03-02T01:17:00;102700.0;;;1.722222222222223;70.2
64862;BME280;62652;42.274;-71.436;2024-03-02T01:18:00;102700.0;;;1.722222222222223;69.8
64862;BME280;62652;42.274;-71.436;2024-03-02T01:19:00;102700.0;;;1.722222222222223;69.9
64862;BME280;62652;42.274;-71.436;2024-03-02T01:20:00;102700.0;;;1.722222222222223;70.1
64862;BME280;62652;42.274;-71.436;2024-03-02T01:21:01;102700.0;;;1.722222222222223;70.2
64862;BME280;62652;42.274;-71.436;2024-03-02T01:22:00;102700.0;;;1.6111111111111103;70.6
64862;BME280;62652;42.274;-71.436;2024-03-02T01:23:01;102700.0;;;1.6111111111111103;70.9
64862;BME280;62652;42.274;-71.436;2024-03-02T01:24:00;102700.0;;;1.6111111111111103;71.1
64862;BME280;62652;42.274;-71.436;2024-03-02T01:25:00;102700.0;;;1.6111111111111103;71.5
64862;BME280;62652;42.274;-71.436;2024-03-02T01:26:01;102709.99999999999;;;1.6111111111111103;71.2
64862;BME280;62652;42.274;-71.436;2024-03-02T01:27:01;102709.99999999999;;;1.6111111111111103;71.5
64862;BME280;62652;42.274;-71.436;2024-03-02T01:28:00;102700.0;;;1.6111111111111103;71.8
64862;BME280;62652;42.274;-71.436;2024-03-02T01:29:00;102700.0;;;1.6111111111111103;71.4
64862;BME280;62652;42.274;-71.436;2024-03-02T01:30:00;102700.0;;;1.6111111111111103;71.5
64862;BME280;62652;42.274;-71.436;2024-03-02T01:31:01;102700.0;;;1.6111111111111103;72.1
64862;BME280;62652;42.274;-71.436;2024-03-02T01:32:00;102700.0;;;1.5000000000000016;72.5
64862;BME280;62652;42.274;-71.436;2024-03-02T01:33:00;102700.0;;;1.5000000000000016;72.4
64862;BME280;62652;42.274;-71.436;2024-03-02T01:34:01;102700.0;;;1.3888888888888888;72.6
64862;BME280;62652;42.274;-71.436;2024-03-02T01:35:00;102700.0;;;1.5000000000000016;73.1
64862;BME280;62652;42.274;-71.436;2024-03-02T01:36:01;102700.0;;;1.5000000000000016;73.5
64862;BME280;62652;42.274;-71.436;2024-03-02T01:37:01;102700.0;;;1.5000000000000016;74.0
64862;BME280;62652;42.274;-71.436;2024-03-02T01:38:01;102700.0;;;1.3888888888888888;74.2
64862;BME280;62652;42.274;-71.436;2024-03-02T01:39:01;102700.0;;;1.3888888888888888;74.7
64862;BME280;62652;42.274;-71.436;2024-03-02T01:40:01;102700.0;;;1.3888888888888888;74.4
64862;BME280;62652;42.274;-71.436;2024-03-02T01:41:00;102709.99999999999;;;1.5000000000000016;74.9
64862;BME280;62652;42.274;-71.436;2024-03-02T01:42:00;102700.0;;;1.3888888888888888;75.0
64862;BME280;62652;42.274;-71.436;2024-03-02T01:43:01;102700.0;;;1.3888888888888888;75.2
64862;BME280;62652;42.274;-71.436;2024-03-02T01:44:00;102709.99999999999;;;1.3888888888888888;74.9
64862;BME280;62652;42.274;-71.436;2024-03-02T01:45:01;102709.99999999999;;;1.3888888888888888;74.9
64862;BME280;62652;42.274;-71.436;2024-03-02T01:46:00;102709.99999999999;;;1.3888888888888888;75.6
64862;BME280;62652;42.274;-71.436;2024-03-02T01:47:01;102709.99999999999;;;1.3888888888888888;75.4
64862;BME280;62652;42.274;-71.436;2024-03-02T01:48:01;102709.99999999999;;;1.2777777777777761;76.0
64862;BME280;62652;42.274;-71.436;2024-03-02T01:49:00;102709.99999999999;;;1.2777777777777761;76.4
64862;BME280;62652;42.274;-71.436;2024-03-02T01:50:01;102709.99999999999;;;1.2222222222222239;76.8
64862;BME280;62652;42.274;-71.436;2024-03-02T01:51:00;102720.0;;;1.2222222222222239;76.9
64862;BME280;62652;42.274;-71.436;2024-03-02T01:52:01;102709.99999999999;;;1.2222222222222239;77.6
64862;BME280;62652;42.274;-71.436;2024-03-02T01:53:01;102709.99999999999;;;1.2777777777777761;77.9
64862;BME280;62652;42.274;-71.436;2024-03-02T01:54:01;102709.99999999999;;;1.3888888888888888;78.3
64862;BME280;62652;42.274;-71.436;2024-03-02T01:55:00;102709.99999999999;;;1.2777777777777761;77.7
64862;BME280;62652;42.274;-71.436;2024-03-02T01:56:01;102709.99999999999;;;1.2777777777777761;77.7
64862;BME280;62652;42.274;-71.436;2024-03-02T01:57:00;102709.99999999999;;;1.2222222222222239;78.2
64862;BME280;62652;42.274;-71.436;2024-03-02T01:58:01;102709.99999999999;;;1.2222222222222239;78.9
64862;BME280;62652;42.274;-71.436;2024-03-02T01:59:01;102709.99999999999;;;1.2222222222222239;78.9
64862;BME280;62652;42.274;-71.436;2024-03-02T02:00:01;102709.99999999999;;;1.2222222222222239;79.1
64862;BME280;62652;42.274;-71.436;2024-03-02T02:01:00;102709.99999999999;;;1.2777777777777761;79.1
64862;BME280;62652;42.274;-71.436;2024-03-02T02:02:00;102709.99999999999;;;1.2222222222222239;79.2
64862;BME280;62652;42.274;-71.436;2024-03-02T02:03:01;102709.99999999999;;;1.2222222222222239;79.2
64862;BME280;62652;42.274;-71.436;2024-03-02T02:04:00;102709.99999999999;;;1.1111111111111112;80.0
64862;BME280;62652;42.274;-71.436;2024-03-02T02:05:00;102709.99999999999;;;1.1111111111111112;80.7
64862;BME280;62652;42.274;-71.436;2024-03-02T02:06:01;102709.99999999999;;;1.2222222222222239;81.1
64862;BME280;62652;42.274;-71.436;2024-03-02T02:07:01;102720.0;;;1.2222222222222239;81.1
64862;BME280;62652;42.274;-71.436;2024-03-02T02:08:01;102709.99999999999;;;1.1111111111111112;81.6
64862;BME280;62652;42.274;-71.436;2024-03-02T02:09:01;102709.99999999999;;;1.1111111111111112;81.7
64862;BME280;62652;42.274;-71.436;2024-03-02T02:10:01;102709.99999999999;;;1.1111111111111112;82.2
64862;BME280;62652;42.274;-71.436;2024-03-02T02:11:00;102709.99999999999;;;1.2222222222222239;82.7
64862;BME280;62652;42.274;-71.436;2024-03-02T02:12:01;102709.99999999999;;;1.2222222222222239;82.6
64862;BME280;62652;42.274;-71.436;2024-03-02T02:13:00;102700.0;;;0.9999999999999984;82.9
64862;BME280;62652;42.274;-71.436;2024-03-02T02:14:00;102709.99999999999;;;0.9999999999999984;83.7
64862;BME280;62652;42.274;-71.436;2024-03-02T02:15:01;102709.99999999999;;;0.9999999999999984;83.9
64862;BME280;62652;42.274;-71.436;2024-03-02T02:16:04;102709.99999999999;;;1.1111111111111112;83.9
64862;BME280;62652;42.274;-71.436;2024-03-02T02:17:01;102709.99999999999;;;0.9999999999999984;84.2
64862;BME280;62652;42.274;-71.436;2024-03-02T02:18:01;102709.99999999999;;;1.1111111111111112;84.6
64862;BME280;62652;42.274;-71.436;2024-03-02T02:19:00;102709.99999999999;;;0.9999999999999984;84.7
64862;BME280;62652;42.274;-71.436;2024-03-02T02:20:00;102709.99999999999;;;0.8888888888888897;85.7
64862;BME280;62652;42.274;-71.436;2024-03-02T02:21:02;102709.99999999999;;;0.9999999999999984;86.5
64862;BME280;62652;42.274;-71.436;2024-03-02T02:22:01;102709.99999999999;;;0.9999999999999984;86.4
64862;BME280;62652;42.274;-71.436;2024-03-02T02:23:01;102709.99999999999;;;1.1111111111111112;86.7
64862;BME280;62652;42.274;-71.436;2024-03-02T02:24:01;102709.99999999999;;;0.8888888888888897;86.9
64862;BME280;62652;42.274;-71.436;2024-03-02T02:25:00;102709.99999999999;;;0.8888888888888897;88.1
64862;BME280;62652;42.274;-71.436;2024-03-02T02:26:00;102720.0;;;0.9999999999999984;88.1
64862;BME280;62652;42.274;-71.436;2024-03-02T02:27:00;102709.99999999999;;;0.8888888888888897;88.2
64862;BME280;62652;42.274;-71.436;2024-03-02T02:28:01;102709.99999999999;;;0.9999999999999984;88.6
64862;BME280;62652;42.274;-71.436;2024-03-02T02:29:00;102709.99999999999;;;0.8888888888888897;89.0
64862;BME280;62652;42.274;-71.436;2024-03-02T02:30:00;102700.0;;;0.777777777777777;89.4
64862;BME280;62652;42.274;-71.436;2024-03-02T02:31:00;102700.0;;;0.777777777777777;90.3
64862;BME280;62652;42.274;-71.436;2024-03-02T02:32:01;102700.0;;;0.8888888888888897;90.3
64862;BME280;62652;42.274;-71.436;2024-03-02T02:33:01;102709.99999999999;;;0.8888888888888897;90.3
64862;BME280;62652;42.274;-71.436;2024-03-02T02:34:00;102709.99999999999;;;0.9999999999999984;91.0
64862;BME280;62652;42.274;-71.436;2024-03-02T02:35:01;102709.99999999999;;;0.9999999999999984;91.0
64862;BME280;62652;42.274;-71.436;2024-03-02T02:36:01;102700.0;;;0.9999999999999984;90.8
64862;BME280;62652;42.274;-71.436;2024-03-02T02:37:00;102700.0;;;1.1111111111111112;90.7
64862;BME280;62652;42.274;-71.436;2024-03-02T02:38:02;102700.0;;;0.9999999999999984;91.1
64862;BME280;62652;42.274;-71.436;2024-03-02T02:39:03;102709.99999999999;;;0.9999999999999984;91.5
64862;BME280;62652;42.274;-71.436;2024-03-02T02:40:00;102700.0;;;1.1111111111111112;91.4
64862;BME280;62652;42.274;-71.436;2024-03-02T02:41:01;102700.0;;;0.9999999999999984;92.0
64862;BME280;62652;42.274;-71.436;2024-03-02T02:42:00;102700.0;;;0.9999999999999984;92.1
64862;BME280;62652;42.274;-71.436;2024-03-02T02:43:01;102700.0;;;0.9999999999999984;92.5
64862;BME280;62652;42.274;-71.436;2024-03-02T02:44:01;102700.0;;;0.9999999999999984;93.1
64862;BME280;62652;42.274;-71.436;2024-03-02T02:45:01;102700.0;;;0.9999999999999984;93.6
64862;BME280;62652;42.274;-71.436;2024-03-02T02:46:00;102709.99999999999;;;0.9999999999999984;94.3
64862;BME280;62652;42.274;-71.436;2024-03-02T02:47:00;102700.0;;;1.1111111111111112;94.1
64862;BME280;62652;42.274;-71.436;2024-03-02T02:48:00;102709.99999999999;;;0.9999999999999984;94.6
64862;BME280;62652;42.274;-71.436;2024-03-02T02:49:01;102700.0;;;0.8888888888888897;95.0
64862;BME280;62652;42.274;-71.436;2024-03-02T02:50:01;102700.0;;;0.9999999999999984;95.1
64862;BME280;62652;42.274;-71.436;2024-03-02T02:51:00;102690.00000000001;;;0.9999999999999984;95.5
64862;BME280;62652;42.274;-71.436;2024-03-02T02:52:01;102700.0;;;0.9999999999999984;96.4
64862;BME280;62652;42.274;-71.436;2024-03-02T02:53:01;102700.0;;;0.8888888888888897;96.2
64862;BME280;62652;42.274;-71.436;2024-03-02T02:54:01;102700.0;;;0.8888888888888897;97.0
64862;BME280;62652;42.274;-71.436;2024-03-02T02:55:02;102709.99999999999;;;0.8888888888888897;97.5
64862;BME280;62652;42.274;-71.436;2024-03-02T02:56:00;102700.0;;;0.8888888888888897;97.6
64862;BME280;62652;42.274;-71.436;2024-03-02T02:57:00;102700.0;;;0.8888888888888897;98.2
64862;BME280;62652;42.274;-71.436;2024-03-02T02:58:00;102700.0;;;0.8888888888888897;98.3
64862;BME280;62652;42.274;-71.436;2024-03-02T02:59:00;102700.0;;;0.8888888888888897;98.3
64862;BME280;62652;42.274;-71.436;2024-03-02T03:00:02;102700.0;;;0.8888888888888897;99.1
64862;BME280;62652;42.274;-71.436;2024-03-02T03:01:01;102700.0;;;0.8888888888888897;99.1
64862;BME280;62652;42.274;-71.436;2024-03-02T03:02:00;102700.0;;;0.8888888888888897;99.9
64862;BME280;62652;42.274;-71.436;2024-03-02T03:03:01;102709.99999999999;;;0.9999999999999984;99.9
64862;BME280;62652;42.274;-71.436;2024-03-02T03:04:00;102700.0;;;0.9999999999999984;99.8
64862;BME280;62652;42.274;-71.436;2024-03-02T03:05:01;102709.99999999999;;;0.9999999999999984;99.8
64862;BME280;62652;42.274;-71.436;2024-03-02T03:06:01;102709.99999999999;;;0.9999999999999984;100.0
64862;BME280;62652;42.274;-71.436;2024-03-02T03:07:00;102709.99999999999;;;1.1111111111111112;100.0
64862;BME280;62652;42.274;-71.436;2024-03-02T03:08:00;102709.99999999999;;;1.1111111111111112;99.7
64862;BME280;62652;42.274;-71.436;2024-03-02T03:09:00;102700.0;;;0.9999999999999984;100.0
64862;BME280;62652;42.274;-71.436;2024-03-02T03:10:01;102700.0;;;0.9999999999999984;100.0
64862;BME280;62652;42.274;-71.436;2024-03-02T03:11:01;102700.0;;;0.9999999999999984;100.0
64862;BME280;62652;42.274;-71.436;2024-03-02T03:12:00;102700.0;;;1.1111111111111112;100.0
64862;BME280;62652;42.274;-71.436;2024-03-02T03:13:00;102700.0;;;0.9999999999999984;100.0
64862;BME280;62652;42.274;-71.436;2024-03-02T03:14:00;102700.0;;;1.1111111111111112;100.0
64862;BME280;62652;42.274;-71.436;2024-03-02T03:15:01;102700.0;;;0.9999999999999984;100.0
64862;BME280;62652;42.274;-71.436;2024-03-02T03:16:01;102700.0;;;0.9999999999999984;100.0
64862;BME280;62652;42.274;-71.436;2024-03-02T03:17:00;102690.00000000001;;;0.9999999999999984;100.0
64862;BME280;62652;42.274;-71.436;2024-03-02T03:18:01;102690.00000000001;;;0.9999999999999984;100.0
64862;BME280;62652;42.274;-71.436;2024-03-02T03:19:00;102690.00000000001;;;0.9999999999999984;100.0
64862;BME280;62652;42.274;-71.436;2024-03-02T03:20:01;102690.00000000001;;;0.9999999999999984;100.0
64862;BME280;62652;42.274;-71.436;2024-03-02T03:21:01;102690.00000000001;;;0.9999999999999984;100.0
64862;BME280;62652;42.274;-71.436;2024-03-02T03:22:00;102690.00000000001;;;0.8888888888888897;100.0
64862;BME280;62652;42.274;-71.436;2024-03-02T03:23:00;102690.00000000001;;;0.8888888888888897;100.0
64862;BME280;62652;42.274;-71.436;2024-03-02T03:24:00;102690.00000000001;;;0.9999999999999984;100.0
64862;BME280;62652;42.274;-71.436;2024-03-02T03:25:01;102690.00000000001;;;0.9999999999999984;100.0
64862;BME280;62652;42.274;-71.436;2024-03-02T03:26:00;102690.00000000001;;;0.8888888888888897;100.0
64862;BME280;62652;42.274;-71.436;2024-03-02T03:27:01;102690.00000000001;;;0.777777777777777;100.0
64862;BME280;62652;42.274;-71.436;2024-03-02T03:28:00;102690.00000000001;;;0.777777777777777;100.0
64862;BME280;62652;42.274;-71.436;2024-03-02T03:29:00;102690.00000000001;;;0.8888888888888897;100.0
64862;BME280;62652;42.274;-71.436;2024-03-02T03:30:00;102680.0;;;0.8888888888888897;100.0
64862;BME280;62652;42.274;-71.436;2024-03-02T03:31:00;102680.0;;;0.8888888888888897;100.0
64862;BME280;62652;42.274;-71.436;2024-03-02T03:32:01;102680.0;;;0.8888888888888897;100.0
64862;BME280;62652;42.274;-71.436;2024-03-02T03:33:00;102680.0;;;0.8888888888888897;100.0
64862;BME280;62652;42.274;-71.436;2024-03-02T03:34:00;102680.0;;;0.9999999999999984;100.0
64862;BME280;62652;42.274;-71.436;2024-03-02T03:35:01;102680.0;;;0.9999999999999984;100.0
64862;BME280;62652;42.274;-71.436;2024-03-02T03:36:01;102680.0;;;0.9999999999999984;100.0
64862;BME280;62652;42.274;-71.436;2024-03-02T03:37:01;102690.00000000001;;;0.9999999999999984;100.0
64862;BME280;62652;42.274;-71.436;2024-03-02T03:38:01;102690.00000000001;;;1.2222222222222239;100.0
64862;BME280;62652;42.274;-71.436;2024-03-02T03:39:01;102690.00000000001;;;1.1111111111111112;100.0
64862;BME280;62652;42.274;-71.436;2024-03-02T03:40:02;102690.00000000001;;;0.9999999999999984;100.0
64862;BME280;62652;42.274;-71.436;2024-03-02T03:41:00;102690.00000000001;;;0.9999999999999984;100.0
64862;BME280;62652;42.274;-71.436;2024-03-02T03:42:00;102700.0;;;1.1111111111111112;100.0
64862;BME280;62652;42.274;-71.436;2024-03-02T03:43:00;102690.00000000001;;;1.1111111111111112;100.0
64862;BME280;62652;42.274;-71.436;2024-03-02T03:44:01;102690.00000000001;;;0.9999999999999984;100.0
64862;BME280;62652;42.274;-71.436;2024-03-02T03:45:01;102690.00000000001;;;0.9999999999999984;100.0
64862;BME280;62652;42.274;-71.436;2024-03-02T03:46:00;102680.0;;;0.9999999999999984;100.0
64862;BME280;62652;42.274;-71.436;2024-03-02T03:47:00;102690.00000000001;;;0.9999999999999984;100.0
64862;BME280;62652;42.274;-71.436;2024-03-02T03:48:00;102680.0;;;1.1111111111111112;100.0
64862;BME280;62652;42.274;-71.436;2024-03-02T03:49:00;102680.0;;;1.1111111111111112;100.0
64862;BME280;62652;42.274;-71.436;2024-03-02T03:50:01;102680.0;;;1.1111111111111112;100.0
64862;BME280;62652;42.274;-71.436;2024-03-02T03:51:00;102680.0;;;0.9999999999999984;100.0
64862;BME280;62652;42.274;-71.436;2024-03-02T03:52:00;102680.0;;;1.1111111111111112;100.0
64862;BME280;62652;42.274;-71.436;2024-03-02T03:53:00;102680.0;;;1.2222222222222239;100.0
64862;BME280;62652;42.274;-71.436;2024-03-02T03:54:01;102680.0;;;1.2222222222222239;100.0
64862;BME280;62652;42.274;-71.436;2024-03-02T03:55:01;102670.0;;;1.1111111111111112;100.0
64862;BME280;62652;42.274;-71.436;2024-03-02T03:56:01;102680.0;;;0.9999999999999984;100.0
64862;BME280;62652;42.274;-71.436;2024-03-02T03:57:00;102680.0;;;0.9999999999999984;100.0
64862;BME280;62652;42.274;-71.436;2024-03-02T03:58:00;102680.0;;;0.9999999999999984;100.0
64862;BME280;62652;42.274;-71.436;2024-03-02T03:59:00;102690.00000000001;;;1.1111111111111112;100.0
64862;BME280;62652;42.274;-71.436;2024-03-02T04:00:04;102680.0;;;1.1111111111111112;100.0
64862;BME280;62652;42.274;-71.436;2024-03-02T04:01:00;102680.0;;;0.9999999999999984;100.0
64862;BME280;62652;42.274;-71.436;2024-03-02T04:02:00;102680.0;;;1.1111111111111112;100.0
64862;BME280;62652;42.274;-71.436;2024-03-02T04:03:00;102680.0;;;1.1111111111111112;100.0
64862;BME280;62652;42.274;-71.436;2024-03-02T04:04:01;102680.0;;;1.1111111111111112;100.0
64862;BME280;62652;42.274;-71.436;2024-03-02T04:05:01;102690.00000000001;;;1.2222222222222239;100.0
64862;BME280;62652;42.274;-71.436;2024-03-02T04:06:01;102690.00000000001;;;1.2222222222222239;100.0
64862;BME280;62652;42.274;-71.436;2024-03-02T04:07:01;102690.00000000001;;;1.1111111111111112;100.0
64862;BME280;62652;42.274;-71.436;2024-03-02T04:08:00;102680.0;;;1.1111111111111112;100.0
64862;BME280;62652;42.274;-71.436;2024-03-02T04:09:01;102680.0;;;1.1111111111111112;100.0
64862;BME280;62652;42.274;-71.436;2024-03-02T04:10:00;102680.0;;;0.9999999999999984;100.0
64862;BME280;62652;42.274;-71.436;2024-03-02T04:11:01;102680.0;;;1.1111111111111112;100.0
64862;BME280;62652;42.274;-71.436;2024-03-02T04:12:01;102680.0;;;1.1111111111111112;100.0
64862;BME280;62652;42.274;-71.436;2024-03-02T04:13:00;102680.0;;;1.2222222222222239;100.0
64862;BME280;62652;42.274;-71.436;2024-03-02T04:14:00;102680.0;;;1.1111111111111112;100.0